Ardsley On Hudson, New York
Current Conditions -  °F | °C
As of 12:56 AM on Wednesday 28 Jan 2015 (Local Time) from KHPN Reporting Station
Scattered Clouds Scattered Clouds  
Wind Chill:   Ceiling: Unl
Heat Index: 14°   Visibility: 10mi
Dew Point:   Wind: 12mph
Humidity: 64%   Direction: 310°NW
Pressure: 29.81"   Gusts: NA
Location:  41.02°N, 73.87°W
Report Text: KHPN 280556Z 31010KT 10SM SCT039 M10/M16 A2981 RMK AO2 SLP107 T11001156 11067 21100 51014
Loading
Personal Weather Stations






























Interactive Weather Map New forecast layout! Learn more

10-Day Weather Forecast

Advertisements
Track Severe Weather on mobile